createdAt,value
2019-03-11T00:01:18.116Z,43.16
2019-03-11T00:03:48.528Z,43.15
2019-03-11T00:06:18.844Z,43.17
2019-03-11T00:08:49.166Z,43.21
2019-03-11T00:11:19.451Z,43.23
2019-03-11T00:13:50.076Z,43.30
2019-03-11T00:16:20.397Z,43.15
2019-03-11T00:18:50.654Z,43.21
2019-03-11T00:21:20.948Z,43.26
2019-03-11T00:23:51.239Z,43.23
2019-03-11T00:26:21.521Z,43.21
2019-03-11T00:28:54.761Z,43.26
2019-03-11T00:31:25.147Z,43.29
2019-03-11T00:33:55.437Z,43.23
2019-03-11T00:36:25.638Z,43.23
2019-03-11T00:38:55.942Z,43.29
2019-03-11T00:41:26.308Z,43.24
2019-03-11T00:43:56.647Z,43.23
2019-03-11T00:46:27.032Z,43.11
2019-03-11T00:48:57.866Z,43.14
2019-03-11T00:51:28.206Z,43.22
2019-03-11T00:53:58.557Z,43.12
2019-03-11T00:56:28.801Z,43.09
2019-03-11T00:59:00.547Z,43.04
2019-03-11T01:01:30.812Z,43.08
2019-03-11T01:04:01.188Z,43.07
2019-03-11T01:06:32.112Z,43.02
2019-03-11T01:09:02.452Z,42.97
2019-03-11T01:11:34.369Z,42.95
2019-03-11T01:14:08.136Z,43.04
2019-03-11T01:16:39.670Z,42.95
2019-03-11T01:19:10.040Z,43.02
2019-03-11T01:21:40.373Z,42.82
2019-03-11T01:24:10.652Z,42.88
2019-03-11T01:26:40.999Z,42.86
2019-03-11T01:29:11.441Z,42.86
2019-03-11T01:31:41.716Z,42.87
2019-03-11T01:34:12.106Z,42.93
2019-03-11T01:36:42.321Z,42.94
2019-03-11T01:39:12.758Z,42.90
2019-03-11T01:41:43.107Z,42.95
2019-03-11T01:44:13.434Z,42.91
2019-03-11T01:46:46.383Z,42.99
2019-03-11T01:49:16.632Z,42.95
2019-03-11T01:51:46.955Z,43.00
2019-03-11T01:54:17.290Z,43.05
2019-03-11T01:56:47.561Z,43.02
2019-03-11T01:59:17.860Z,43.03
2019-03-11T02:01:48.640Z,43.02
2019-03-11T02:04:19.020Z,43.09
2019-03-11T02:06:49.397Z,43.08
2019-03-11T02:09:19.701Z,43.07
2019-03-11T02:11:50.055Z,43.04
2019-03-11T02:14:20.617Z,43.05
2019-03-11T02:16:50.977Z,43.01
2019-03-11T02:19:21.288Z,43.06
2019-03-11T02:21:51.700Z,43.04
2019-03-11T02:24:22.048Z,42.97
2019-03-11T02:26:52.344Z,42.99
2019-03-11T02:29:22.740Z,42.98
2019-03-11T02:31:52.977Z,42.94
2019-03-11T02:34:23.473Z,42.91
2019-03-11T02:36:53.807Z,43.00
2019-03-11T02:39:24.049Z,42.93
2019-03-11T02:41:54.485Z,43.03
2019-03-11T02:44:24.837Z,43.06
2019-03-11T02:46:55.139Z,43.02
2019-03-11T02:49:25.467Z,43.03
2019-03-11T02:51:56.436Z,43.02
2019-03-11T02:54:26.868Z,43.03
2019-03-11T02:56:58.130Z,43.04
2019-03-11T02:59:28.372Z,42.97
2019-03-11T03:02:23.733Z,43.02
2019-03-11T03:05:04.421Z,42.98
2019-03-11T03:07:34.792Z,42.99
2019-03-11T03:10:05.430Z,43.01
2019-03-11T03:12:35.806Z,43.05
2019-03-11T03:15:07.443Z,43.04
2019-03-11T03:17:37.825Z,43.02
2019-03-11T03:20:08.953Z,42.98
2019-03-11T03:22:39.445Z,42.96
2019-03-11T03:25:10.103Z,42.92
2019-03-11T03:27:40.698Z,43.01
2019-03-11T03:30:13.818Z,42.97
2019-03-11T03:32:44.108Z,43.07
2019-03-11T03:35:14.464Z,43.02
2019-03-11T03:37:44.764Z,43.05
2019-03-11T03:40:15.053Z,42.97
2019-03-11T03:42:45.915Z,42.95
2019-03-11T03:45:35.373Z,42.96
2019-03-11T03:48:05.655Z,43.01
2019-03-11T03:50:38.168Z,42.52
2019-03-11T03:53:10.824Z,42.26
2019-03-11T03:55:41.188Z,42.39
2019-03-11T03:58:11.537Z,41.90
2019-03-11T04:00:44.230Z,41.82
2019-03-11T04:03:14.564Z,41.56
2019-03-11T04:05:44.835Z,40.62
2019-03-11T04:08:15.017Z,40.14
2019-03-11T04:10:45.673Z,39.11
2019-03-11T04:13:21.087Z,40.12
2019-03-11T04:15:51.737Z,40.42
2019-03-11T04:18:22.033Z,40.40
2019-03-11T04:20:52.404Z,40.68
2019-03-11T04:23:22.771Z,40.68
2019-03-11T04:25:53.049Z,40.72
2019-03-11T04:28:23.414Z,40.64
2019-03-11T04:30:53.777Z,40.39
2019-03-11T04:33:24.061Z,40.58
2019-03-11T04:35:54.438Z,40.47
2019-03-11T04:38:24.939Z,40.57
2019-03-11T04:40:55.218Z,40.56
2019-03-11T04:43:25.530Z,40.52
2019-03-11T04:45:55.836Z,40.51
2019-03-11T04:48:27.706Z,40.36
2019-03-11T04:50:58.002Z,40.35
2019-03-11T04:53:28.343Z,40.29
2019-03-11T04:55:58.632Z,40.09
2019-03-11T04:58:28.981Z,40.26
2019-03-11T05:00:59.304Z,40.04
2019-03-11T05:03:32.216Z,40.01
2019-03-11T05:06:03.197Z,39.99
2019-03-11T05:08:33.430Z,40.08
2019-03-11T05:11:04.598Z,40.00
2019-03-11T05:13:34.967Z,40.13
2019-03-11T05:16:05.312Z,39.58
2019-03-11T05:18:35.629Z,39.74
2019-03-11T05:21:05.993Z,39.36
2019-03-11T05:23:36.223Z,39.70
2019-03-11T05:26:06.731Z,39.90
2019-03-11T05:28:37.452Z,39.63
2019-03-11T05:31:07.886Z,39.26
2019-03-11T05:33:38.198Z,39.41
2019-03-11T05:36:08.471Z,39.67
2019-03-11T05:38:38.846Z,39.84
2019-03-11T05:41:09.127Z,39.80
2019-03-11T05:43:39.497Z,39.84
2019-03-11T05:46:11.726Z,39.93
2019-03-11T05:48:41.908Z,39.86
2019-03-11T05:51:12.249Z,39.86
2019-03-11T05:53:42.591Z,39.67
2019-03-11T05:56:13.273Z,39.69
2019-03-11T05:58:43.575Z,39.23
2019-03-11T06:01:13.861Z,39.32
2019-03-11T06:03:44.223Z,39.39
2019-03-11T06:06:15.238Z,38.95
2019-03-11T06:08:45.570Z,38.64
2019-03-11T06:11:15.857Z,39.19
2019-03-11T06:13:46.298Z,38.65
2019-03-11T06:16:16.989Z,39.04
2019-03-11T06:18:52.669Z,38.59
2019-03-11T06:21:52.820Z,36.33
2019-03-11T06:24:23.512Z,35.40
2019-03-11T06:26:53.793Z,35.60
2019-03-11T06:29:30.414Z,36.15
2019-03-11T06:31:56.904Z,36.55
2019-03-11T06:34:27.218Z,36.81
2019-03-11T06:36:59.413Z,36.77
2019-03-11T06:39:29.785Z,36.91
2019-03-11T06:42:00.119Z,36.28
2019-03-11T06:44:30.446Z,36.47
2019-03-11T06:47:00.796Z,36.42
2019-03-11T06:49:31.063Z,36.33
2019-03-11T06:52:03.484Z,36.51
2019-03-11T06:54:33.575Z,36.64
2019-03-11T06:57:03.965Z,36.52
2019-03-11T06:59:34.317Z,36.68
2019-03-11T07:02:04.552Z,36.72
2019-03-11T07:04:35.275Z,36.70
2019-03-11T07:07:05.546Z,36.59
2019-03-11T07:09:35.939Z,36.68
2019-03-11T07:12:06.239Z,36.84
2019-03-11T07:14:36.728Z,36.80
2019-03-11T07:17:07.033Z,36.70
2019-03-11T07:19:37.351Z,36.77
2019-03-11T07:22:07.701Z,36.80
2019-03-11T07:24:38.096Z,36.92
2019-03-11T07:27:09.449Z,36.83
2019-03-11T07:29:39.789Z,36.76
2019-03-11T07:32:11.149Z,36.84
2019-03-11T07:34:41.529Z,36.77
2019-03-11T07:37:11.838Z,36.80
2019-03-11T07:39:42.240Z,36.59
2019-03-11T07:42:14.842Z,36.82
2019-03-11T07:44:45.144Z,36.64
2019-03-11T07:47:15.379Z,36.75
2019-03-11T07:49:45.741Z,36.73
2019-03-11T07:52:16.168Z,36.74
2019-03-11T07:54:46.463Z,36.70
2019-03-11T07:57:16.773Z,36.74
2019-03-11T07:59:47.074Z,36.79
2019-03-11T08:02:18.478Z,36.75
2019-03-11T08:04:48.923Z,36.72
2019-03-11T08:07:19.239Z,36.65
2019-03-11T08:09:49.561Z,36.70
2019-03-11T08:12:19.975Z,36.71
2019-03-11T08:14:50.203Z,36.79
2019-03-11T08:17:19.151Z,36.78
2019-03-11T08:19:47.812Z,36.79
2019-03-11T08:22:16.429Z,36.77
2019-03-11T08:24:45.153Z,36.67
2019-03-11T08:27:14.034Z,36.67
2019-03-11T08:29:46.685Z,36.71
2019-03-11T08:32:16.994Z,36.67
2019-03-11T08:34:47.255Z,36.61
2019-03-11T08:37:18.855Z,36.64
2019-03-11T08:39:50.224Z,36.66
2019-03-11T08:42:20.516Z,36.69
2019-03-11T08:44:50.891Z,36.57
2019-03-11T08:47:21.149Z,36.50
2019-03-11T08:49:51.483Z,36.36
2019-03-11T08:52:21.858Z,36.42
2019-03-11T08:54:53.152Z,36.35
2019-03-11T08:57:23.475Z,36.48
2019-03-11T08:59:53.733Z,36.53
2019-03-11T09:02:23.993Z,36.29
2019-03-11T09:04:54.375Z,36.42
2019-03-11T09:07:24.719Z,36.46
2019-03-11T09:09:54.960Z,36.42
2019-03-11T09:12:25.235Z,36.17
2019-03-11T09:14:55.495Z,36.17
2019-03-11T09:17:25.807Z,36.35
2019-03-11T09:19:56.134Z,36.18
2019-03-11T09:22:26.589Z,36.05
2019-03-11T09:24:56.870Z,36.21
2019-03-11T09:27:27.251Z,36.43
2019-03-11T09:29:57.621Z,36.29
2019-03-11T09:32:27.856Z,36.36
2019-03-11T09:34:58.197Z,36.45
2019-03-11T09:37:29.543Z,36.28
2019-03-11T09:40:01.107Z,36.25
2019-03-11T09:42:35.130Z,36.34
2019-03-11T09:45:06.362Z,36.31
2019-03-11T09:47:36.685Z,36.11
2019-03-11T09:50:07.259Z,36.31
2019-03-11T09:52:37.666Z,36.24
2019-03-11T09:55:09.470Z,36.21
2019-03-11T09:57:39.745Z,36.25
2019-03-11T10:00:13.872Z,36.37
2019-03-11T10:02:52.244Z,36.42
2019-03-11T10:05:16.459Z,36.43
2019-03-11T10:07:46.819Z,36.46
2019-03-11T10:10:17.527Z,36.50
2019-03-11T10:12:47.898Z,36.52
2019-03-11T10:15:19.438Z,36.37
2019-03-11T10:17:49.819Z,36.25
2019-03-11T10:20:20.301Z,36.19
2019-03-11T10:22:50.687Z,36.13
2019-03-11T10:25:21.026Z,36.17
2019-03-11T10:27:51.627Z,36.12
2019-03-11T10:30:22.005Z,36.11
2019-03-11T10:32:52.642Z,36.11
2019-03-11T10:35:32.487Z,36.13
2019-03-11T10:37:55.211Z,36.07
2019-03-11T10:40:26.081Z,36.12
2019-03-11T10:42:56.466Z,36.08
2019-03-11T10:45:31.663Z,36.14
2019-03-11T10:47:58.841Z,36.19
2019-03-11T10:50:30.193Z,36.15
2019-03-11T10:53:00.531Z,36.04
2019-03-11T10:55:31.775Z,36.05
2019-03-11T10:58:02.492Z,36.00
2019-03-11T11:00:33.494Z,36.05
2019-03-11T11:03:03.804Z,35.99
2019-03-11T11:05:35.191Z,36.08
2019-03-11T11:08:05.557Z,36.01
2019-03-11T11:10:35.917Z,36.06
2019-03-11T11:13:08.368Z,36.08
2019-03-11T11:15:38.700Z,36.11
2019-03-11T11:18:08.967Z,36.20
2019-03-11T11:20:39.342Z,36.06
2019-03-11T11:23:09.654Z,36.07
2019-03-11T11:25:40.099Z,36.07
2019-03-11T11:28:11.524Z,36.06
2019-03-11T11:30:41.877Z,36.07
2019-03-11T11:33:12.134Z,36.08
2019-03-11T11:35:42.573Z,36.12
2019-03-11T11:38:12.916Z,36.11
2019-03-11T11:40:43.303Z,36.09
2019-03-11T11:43:13.694Z,36.00
2019-03-11T11:45:44.092Z,35.95
2019-03-11T11:48:16.056Z,36.06
2019-03-11T11:50:46.368Z,36.10
2019-03-11T11:53:16.688Z,36.07
2019-03-11T11:55:57.393Z,36.14
2019-03-11T11:58:20.384Z,36.14
2019-03-11T12:00:50.036Z,36.13
2019-03-11T12:03:18.666Z,35.94
2019-03-11T12:05:47.337Z,35.95
2019-03-11T12:08:17.646Z,36.02
2019-03-11T12:10:49.965Z,35.87
2019-03-11T12:13:20.353Z,35.78
2019-03-11T12:15:50.570Z,35.79
2019-03-11T12:18:20.849Z,35.73
2019-03-11T12:20:51.228Z,35.63
2019-03-11T12:23:21.487Z,35.57
2019-03-11T12:25:51.807Z,35.66
2019-03-11T12:28:22.051Z,35.54
2019-03-11T12:30:52.374Z,35.65
2019-03-11T12:33:22.703Z,35.66
2019-03-11T12:35:53.442Z,35.68
2019-03-11T12:38:23.707Z,35.69
2019-03-11T12:40:56.080Z,35.70
2019-03-11T12:43:27.377Z,35.66
2019-03-11T12:45:58.124Z,35.60
2019-03-11T12:48:28.343Z,35.66
2019-03-11T12:50:58.694Z,35.77
2019-03-11T12:53:28.973Z,35.71
2019-03-11T12:55:59.750Z,35.67
2019-03-11T12:58:40.809Z,35.79
2019-03-11T13:01:03.523Z,35.71
2019-03-11T13:03:33.986Z,35.66
2019-03-11T13:06:04.325Z,35.69
2019-03-11T13:08:34.626Z,35.76
2019-03-11T13:11:04.994Z,35.92
2019-03-11T13:13:35.268Z,35.85
2019-03-11T13:16:05.497Z,35.95
2019-03-11T13:18:41.018Z,35.84
2019-03-11T13:21:40.866Z,35.96
2019-03-11T13:24:11.228Z,35.92
2019-03-11T13:26:41.547Z,35.90
2019-03-11T13:29:11.860Z,35.90
2019-03-11T13:31:42.217Z,36.03
2019-03-11T13:34:12.621Z,36.00
2019-03-11T13:36:42.982Z,36.04
2019-03-11T13:39:14.323Z,36.13
2019-03-11T13:41:44.560Z,36.11
2019-03-11T13:44:14.927Z,36.03
2019-03-11T13:46:45.143Z,36.05
2019-03-11T13:49:15.450Z,36.12
2019-03-11T13:51:45.714Z,36.19
2019-03-11T13:54:16.125Z,36.15
2019-03-11T13:56:46.496Z,36.07
2019-03-11T13:59:16.809Z,36.11
2019-03-11T14:01:47.040Z,36.08
2019-03-11T14:04:17.365Z,36.07
2019-03-11T14:06:47.694Z,36.09
2019-03-11T14:09:18.032Z,36.22
2019-03-11T14:11:48.304Z,36.12
2019-03-11T14:14:18.705Z,36.19
2019-03-11T14:16:48.976Z,36.11
2019-03-11T14:19:19.307Z,36.11
2019-03-11T14:21:49.551Z,36.16
2019-03-11T14:24:20.213Z,36.20
2019-03-11T14:26:50.654Z,36.04
2019-03-11T14:29:21.324Z,36.05
2019-03-11T14:31:52.280Z,36.01
2019-03-11T14:34:25.764Z,36.06
2019-03-11T14:36:56.414Z,36.00
2019-03-11T14:39:26.746Z,36.00
2019-03-11T14:41:58.294Z,35.62
2019-03-11T14:44:28.620Z,33.86
2019-03-11T14:46:58.884Z,34.06
2019-03-11T14:49:29.278Z,34.54
2019-03-11T14:51:59.587Z,35.11
2019-03-11T14:54:29.930Z,35.28
2019-03-11T14:57:00.353Z,33.77
2019-03-11T14:59:30.736Z,29.44
2019-03-11T15:02:01.428Z,26.85
2019-03-11T15:04:32.897Z,25.45
2019-03-11T15:07:05.275Z,24.61
2019-03-11T15:09:35.656Z,26.83
2019-03-11T15:12:05.908Z,29.20
2019-03-11T15:14:36.496Z,30.49
2019-03-11T15:17:06.871Z,30.99
2019-03-11T15:19:39.478Z,30.96
2019-03-11T15:22:09.887Z,27.99
2019-03-11T15:24:41.793Z,28.28
2019-03-11T15:27:12.196Z,28.52
2019-03-11T15:29:42.528Z,29.72
2019-03-11T15:32:15.437Z,30.44
2019-03-11T15:34:45.742Z,30.83
2019-03-11T15:37:16.124Z,31.12
2019-03-11T15:39:46.478Z,30.91
2019-03-11T15:42:16.769Z,27.93
2019-03-11T15:44:47.147Z,28.69
2019-03-11T15:47:17.569Z,26.60
2019-03-11T15:49:47.880Z,25.26
2019-03-11T15:52:21.092Z,26.49
2019-03-11T15:54:51.382Z,27.46
2019-03-11T15:57:21.877Z,28.19
2019-03-11T15:59:52.164Z,28.62
2019-03-11T16:02:22.544Z,28.53
2019-03-11T16:04:52.867Z,27.95
2019-03-11T16:07:23.102Z,27.25
2019-03-11T16:09:53.374Z,27.91
2019-03-11T16:12:23.690Z,28.37
2019-03-11T16:14:54.134Z,28.70
2019-03-11T16:17:24.511Z,28.79
2019-03-11T16:19:54.826Z,28.97
2019-03-11T16:22:26.351Z,29.07
2019-03-11T16:24:56.788Z,29.34
2019-03-11T16:27:27.129Z,29.42
2019-03-11T16:29:57.432Z,29.49
2019-03-11T16:32:27.732Z,29.61
2019-03-11T16:34:58.953Z,29.69
2019-03-11T16:37:29.193Z,29.85
2019-03-11T16:39:59.566Z,29.89
2019-03-11T16:42:31.071Z,30.14
2019-03-11T16:45:01.429Z,30.17
2019-03-11T16:47:32.191Z,30.28
2019-03-11T16:50:02.844Z,30.44
2019-03-11T16:52:33.252Z,30.54
2019-03-11T16:55:04.074Z,30.51
2019-03-11T16:57:34.377Z,30.61
2019-03-11T17:00:05.180Z,30.64
2019-03-11T17:02:35.678Z,30.69
2019-03-11T17:05:06.150Z,30.74
2019-03-11T17:07:36.467Z,30.88
2019-03-11T17:10:07.605Z,30.92
2019-03-11T17:12:39.023Z,30.98
2019-03-11T17:15:09.789Z,31.02
2019-03-11T17:17:40.082Z,31.05
2019-03-11T17:20:11.932Z,31.39
2019-03-11T17:22:42.332Z,30.50
2019-03-11T17:25:12.819Z,30.96
2019-03-11T17:27:43.138Z,31.03
2019-03-11T17:30:14.964Z,30.90
2019-03-11T17:37:26.643Z,31.33
2019-03-11T17:39:57.353Z,31.62
2019-03-11T17:42:28.349Z,28.27
2019-03-11T17:45:07.467Z,26.77
2019-03-11T17:47:38.939Z,26.00
2019-03-11T17:50:18.475Z,25.38
2019-03-11T17:52:50.912Z,26.90
2019-03-11T17:55:22.057Z,27.16
2019-03-11T17:57:52.564Z,27.58
2019-03-11T18:00:26.145Z,23.51
2019-03-11T18:02:57.521Z,26.02
2019-03-11T18:05:27.860Z,26.49
2019-03-11T18:07:58.107Z,25.53
2019-03-11T18:10:28.394Z,24.73
2019-03-11T18:12:58.972Z,25.74
2019-03-11T18:15:29.146Z,25.92
2019-03-11T18:17:59.316Z,25.91
2019-03-11T18:20:29.496Z,25.75
2019-03-11T18:22:59.790Z,26.15
2019-03-11T18:25:29.983Z,25.69
2019-03-11T18:28:00.263Z,26.58
2019-03-11T18:30:32.934Z,26.32
2019-03-11T18:33:03.110Z,25.78
2019-03-11T18:35:34.387Z,23.54
2019-03-11T18:38:05.232Z,22.60
2019-03-11T18:40:38.523Z,22.13
2019-03-11T18:43:20.196Z,23.47
2019-03-11T18:45:42.176Z,22.56
2019-03-11T18:48:12.598Z,21.40
2019-03-11T18:50:44.225Z,22.77
2019-03-11T18:53:15.298Z,23.79
2019-03-11T18:55:47.383Z,25.34
2019-03-11T18:58:19.232Z,25.35
2019-03-11T19:00:50.899Z,25.50
2019-03-11T19:03:21.785Z,25.73
2019-03-11T19:05:54.920Z,25.92
2019-03-11T19:08:27.410Z,26.24
2019-03-11T19:10:57.825Z,26.19
2019-03-11T19:13:28.265Z,26.35
2019-03-11T19:15:58.709Z,26.41
2019-03-11T19:18:29.086Z,26.54
2019-03-11T19:20:59.437Z,26.69
2019-03-11T19:23:29.779Z,26.85
2019-03-11T19:26:00.089Z,27.15
2019-03-11T19:28:31.465Z,27.63
2019-03-11T19:31:02.220Z,27.95
2019-03-11T19:33:32.594Z,28.21
2019-03-11T19:36:03.054Z,28.64
2019-03-11T19:38:34.570Z,28.80
2019-03-11T19:41:05.511Z,29.15
2019-03-11T19:43:36.445Z,29.33
2019-03-11T19:46:06.840Z,29.61
2019-03-11T19:48:37.383Z,29.77
2019-03-11T19:51:09.237Z,29.94
2019-03-11T19:53:39.721Z,30.14
2019-03-11T19:56:11.485Z,30.21
2019-03-11T19:58:41.821Z,30.31
2019-03-11T20:01:12.571Z,30.42
2019-03-11T20:03:43.174Z,30.56
2019-03-11T20:06:13.488Z,30.65
2019-03-11T20:08:44.430Z,30.75
2019-03-11T20:11:15.716Z,30.85
2019-03-11T20:13:48.863Z,31.01
2019-03-11T20:16:22.355Z,31.06
2019-03-11T20:18:55.540Z,31.14
2019-03-11T20:21:26.057Z,31.29
2019-03-11T20:23:56.529Z,31.35
2019-03-11T20:26:27.066Z,31.37
2019-03-11T20:28:57.461Z,31.54
2019-03-11T20:31:27.991Z,31.60
2019-03-11T20:33:58.515Z,32.04
2019-03-11T20:36:28.894Z,31.86
2019-03-11T20:38:59.338Z,31.96
2019-03-11T20:41:29.675Z,32.11
2019-03-11T20:44:00.140Z,32.21
2019-03-11T20:46:31.192Z,32.38
2019-03-11T20:49:01.512Z,32.41
2019-03-11T20:51:31.998Z,32.51
2019-03-11T20:54:02.416Z,32.62
2019-03-11T20:56:32.802Z,32.67
2019-03-11T20:59:03.731Z,32.81
2019-03-11T21:01:34.081Z,32.86
2019-03-11T21:04:05.596Z,33.09
2019-03-11T21:06:36.029Z,33.01
2019-03-11T21:09:08.733Z,32.98
2019-03-11T21:11:39.802Z,33.01
2019-03-11T21:14:10.557Z,33.00
2019-03-11T21:16:40.911Z,33.03
2019-03-11T21:19:11.329Z,33.02
2019-03-11T21:21:42.105Z,33.13
2019-03-11T21:24:13.874Z,33.24
2019-03-11T21:26:44.463Z,33.23
2019-03-11T21:29:15.446Z,33.28
2019-03-11T21:31:45.902Z,33.53
2019-03-11T21:34:16.300Z,33.47
2019-03-11T21:36:50.753Z,33.58
2019-03-11T21:39:21.742Z,33.56
2019-03-11T21:41:52.547Z,33.50
2019-03-11T21:44:22.932Z,33.48
2019-03-11T21:46:53.348Z,33.47
2019-03-11T21:49:23.694Z,33.46
2019-03-11T21:51:54.087Z,33.42
2019-03-11T21:54:24.481Z,33.45
2019-03-11T21:56:54.889Z,33.51
2019-03-11T21:59:25.330Z,33.48
2019-03-11T22:01:55.687Z,33.41
2019-03-11T22:04:26.040Z,33.51
2019-03-11T22:06:56.769Z,33.55
2019-03-11T22:09:27.252Z,33.51
2019-03-11T22:11:57.656Z,33.94
2019-03-11T22:14:28.122Z,34.70
2019-03-11T22:16:58.402Z,36.55
2019-03-11T22:19:28.807Z,36.29
2019-03-11T22:21:59.167Z,36.50
2019-03-11T22:24:29.454Z,36.85
2019-03-11T22:26:59.863Z,37.56
2019-03-11T22:29:30.563Z,38.34
2019-03-11T22:32:00.864Z,38.91
2019-03-11T22:34:31.160Z,39.98
2019-03-11T22:37:01.571Z,40.02
2019-03-11T22:39:34.043Z,40.49
2019-03-11T22:42:04.361Z,40.67
2019-03-11T22:44:34.743Z,41.79
2019-03-11T22:47:04.979Z,41.84
2019-03-11T22:49:35.342Z,41.82
2019-03-11T22:52:05.613Z,41.62
2019-03-11T22:54:35.974Z,41.90
2019-03-11T22:57:06.187Z,41.53
2019-03-11T22:59:36.576Z,41.41
2019-03-11T23:02:06.852Z,42.20
2019-03-11T23:04:37.683Z,41.91
2019-03-11T23:07:07.952Z,42.00
2019-03-11T23:09:38.267Z,42.01
2019-03-11T23:12:08.538Z,41.84
2019-03-11T23:14:38.849Z,42.31
2019-03-11T23:17:09.397Z,42.02
2019-03-11T23:19:39.726Z,41.98
2019-03-11T23:22:10.114Z,42.03
2019-03-11T23:24:40.437Z,42.08
2019-03-11T23:27:10.804Z,41.94
2019-03-11T23:29:41.252Z,42.08
2019-03-11T23:32:11.637Z,42.11
2019-03-11T23:34:42.043Z,41.92
2019-03-11T23:37:12.486Z,42.29
2019-03-11T23:39:42.812Z,42.12
2019-03-11T23:42:13.065Z,42.00
2019-03-11T23:44:43.406Z,42.09
2019-03-11T23:47:13.749Z,42.02
2019-03-11T23:49:44.069Z,42.21
2019-03-11T23:52:14.356Z,42.01
2019-03-11T23:54:44.596Z,42.08
2019-03-11T23:57:14.986Z,42.16
2019-03-11T23:59:45.237Z,42.11
